Terminal Aerodrome Forecast
Issued by NWS Omaha/Valley, NE

Home | Current Version | Previous Version | Text Only | Print | Product List | Glossary On
Versions: 1 2 3 4 5 6 7 8 9 10 11 12 13 14 15 16 17 18 19 20 21 22 23 24 25 26 27 28 29 30
000
FTUS43 KOAX 280605 AAA
TAFOMA
TAF AMD
KOMA 280605Z 2806/2906 09008KT P6SM VCTS BKN025CB OVC070
      TEMPO 2806/2810 2SM TSRA BKN015CB
     FM281000 15015G22KT P6SM OVC100
     FM281500 22012KT P6SM OVC250
     FM281600 30012KT P6SM OVC100
     FM281700 33012KT P6SM BKN050
     FM290000 35006KT P6SM SCT250=

USA.gov is the U.S. government's official web portal to all federal, state and local government web resources and services.